Time;durP1;ratioP1;P1;durP2;ratioP2;P2;SDS_P1;SDS_P2;PMS_P1;PMS_P2;Temp;Humidity;BMP_temperature;BMP_pressure;BME280_temperature;BME280_humidity;BME280_pressure;Samples;Min_cycle;Max_cycle;Signal;HPM_P1;HPM_P2
2023/12/13 00:02:25;;;;;;;;;;;;;;;;;;5083587;28;19908;-64
2023/12/13 00:04:51;;;;;;;;;;;;;;;;;;5087255;28;20309;-65
2023/12/13 00:07:18;;;;;;;;;;;;;;;;;;5094840;28;19912;-65
2023/12/13 00:09:44;;;;;;;;;;;;;;;;;;5084479;28;19916;-65
2023/12/13 00:12:10;;;;;;;;;;;;;;;;;;5074548;28;19915;-65
2023/12/13 00:14:42;;;;;;;;;;;;;;;;;;5082825;28;20411;-64
2023/12/13 00:17:10;;;;;;;;;;;;;;;;;;5074719;28;19940;-65
2023/12/13 00:19:36;;;;;;;;;;;;;;;;;;5074369;28;20300;-65
2023/12/13 00:22:03;;;;;;;;;;;;;;;;;;5083087;28;20239;-66
2023/12/13 00:24:28;;;;;;;;;;;;;;;;;;5090952;28;20376;-64
2023/12/13 00:26:54;;;;;;;;;;;;;;;;;;5075748;28;19930;-66
2023/12/13 00:29:20;;;;;;;;;;;;;;;;;;5074392;28;19912;-66
2023/12/13 00:31:46;;;;;;;;;;;;;;;;;;5091112;28;19955;-64
2023/12/13 00:34:12;;;;;;;;;;;;;;;;;;5085411;28;20120;-66
2023/12/13 00:36:38;;;;;;;;;;;;;;;;;;5090221;28;20372;-66
2023/12/13 00:39:05;;;;;;;;;;;;;;;;;;5087219;28;19912;-65
2023/12/13 00:41:32;;;;;;;;;;;;;;;;;;5080249;28;19939;-66
2023/12/13 00:43:57;;;;;;;;;;;;;;;;;;5091457;28;20421;-64
2023/12/13 00:46:24;;;;;;;;;;;;;;;;;;5074180;28;19916;-65
2023/12/13 00:48:50;;;;;;;;;;;;;;;;;;5074173;28;19912;-67
2023/12/13 00:51:16;;;;;;;;;;;;;;;;;;5078773;28;19912;-66
2023/12/13 00:53:42;;;;;;;;;;;;;;;;;;5092024;28;19919;-67
2023/12/13 00:56:08;;;;;;;;;;;;;;;;;;5091886;28;20407;-67
2023/12/13 00:58:34;;;;;;;;;;;;;;;;;;5085567;28;19918;-64
2023/12/13 01:01:00;;;;;;;;;;;;;;;;;;5078268;28;20397;-67
2023/12/13 01:03:26;;;;;;;;;;;;;;;;;;5085720;28;20000;-67
2023/12/13 01:05:51;;;;;;;;;;;;;;;;;;5074924;28;20280;-67
2023/12/13 01:08:17;;;;;;;;;;;;;;;;;;5081672;28;19918;-66
2023/12/13 01:10:44;;;;;;;;;;;;;;;;;;5091797;28;19959;-67
2023/12/13 01:13:09;;;;;;;;;;;;;;;;;;5083631;28;19913;-63
2023/12/13 01:15:36;;;;;;;;;;;;;;;;;;5081021;28;20399;-66
2023/12/13 01:18:02;;;;;;;;;;;;;;;;;;5079750;28;19970;-66
2023/12/13 01:20:28;;;;;;;;;;;;;;;;;;5082128;28;19924;-64
2023/12/13 01:22:54;;;;;;;;;;;;;;;;;;5090093;28;20046;-66
2023/12/13 01:25:20;;;;;;;;;;;;;;;;;;5081423;28;19959;-58
2023/12/13 01:27:46;;;;;;;;;;;;;;;;;;5089073;28;20039;-59
2023/12/13 01:30:12;;;;;;;;;;;;;;;;;;5086568;28;19913;-59
2023/12/13 01:32:38;;;;;;;;;;;;;;;;;;5075484;28;20000;-59
2023/12/13 01:35:04;;;;;;;;;;;;;;;;;;5079121;28;20312;-61
2023/12/13 01:37:30;;;;;;;;;;;;;;;;;;5093077;28;19912;-61
2023/12/13 01:39:56;;;;;;;;;;;;;;;;;;5090972;28;19923;-61
2023/12/13 01:42:22;;;;;;;;;;;;;;;;;;5078204;28;19951;-61
2023/12/13 01:44:48;;;;;;;;;;;;;;;;;;5090739;28;20034;-59
2023/12/13 01:47:14;;;;;;;;;;;;;;;;;;5091945;28;19908;-60
2023/12/13 01:49:39;;;;;;;;;;;;;;;;;;5087292;28;19966;-59
2023/12/13 01:52:05;;;;;;;;;;;;;;;;;;5091037;28;19912;-61
2023/12/13 01:54:31;;;;;;;;;;;;;;;;;;5081002;28;20329;-58
2023/12/13 01:56:57;;;;;;;;;;;;;;;;;;5090820;28;20113;-59
2023/12/13 01:59:23;;;;;;;;;;;;;;;;;;5090336;28;19912;-60
2023/12/13 02:01:52;;;;;;;;;;;;;;;;;;5091426;28;19999;-60
2023/12/13 02:04:17;;;;;;;;;;;;;;;;;;5086274;28;20328;-62
2023/12/13 02:06:43;;;;;;;;;;;;;;;;;;5092226;28;20061;-60
2023/12/13 02:09:09;;;;;;;;;;;;;;;;;;5072616;28;19913;-60
2023/12/13 02:11:35;;;;;;;;;;;;;;;;;;5082245;28;20261;-63
2023/12/13 02:14:01;;;;;;;;;;;;;;;;;;5075799;28;19916;-62
2023/12/13 02:16:27;;;;;;;;;;;;;;;;;;5078376;28;20011;-60
2023/12/13 02:18:53;;;;;;;;;;;;;;;;;;5092398;28;20283;-62
2023/12/13 02:21:19;;;;;;;;;;;;;;;;;;5085801;28;19919;-62
2023/12/13 02:23:46;;;;;;;;;;;;;;;;;;5082358;28;19920;-62
2023/12/13 02:26:11;;;;;;;;;;;;;;;;;;5087258;28;19924;-61
2023/12/13 02:28:37;;;;;;;;;;;;;;;;;;5085615;28;19951;-61
2023/12/13 02:31:03;;;;;;;;;;;;;;;;;;5090579;28;19916;-61
2023/12/13 02:33:29;;;;;;;;;;;;;;;;;;5082161;28;19919;-62
2023/12/13 02:35:55;;;;;;;;;;;;;;;;;;5082089;28;20401;-61
2023/12/13 02:38:21;;;;;;;;;;;;;;;;;;5084235;28;19916;-61
2023/12/13 02:40:47;;;;;;;;;;;;;;;;;;5082052;28;20008;-61
2023/12/13 02:43:13;;;;;;;;;;;;;;;;;;5088399;28;19920;-61
2023/12/13 02:45:39;;;;;;;;;;;;;;;;;;5072258;28;19960;-61
2023/12/13 02:48:04;;;;;;;;;;;;;;;;;;5083104;28;20003;-62
2023/12/13 02:50:31;;;;;;;;;;;;;;;;;;5087447;28;19917;-62
2023/12/13 02:52:57;;;;;;;;;;;;;;;;;;5080589;28;19923;-62
2023/12/13 02:55:23;;;;;;;;;;;;;;;;;;5089596;28;19917;-61
2023/12/13 02:57:48;;;;;;;;;;;;;;;;;;5091537;28;20003;-61
2023/12/13 03:00:14;;;;;;;;;;;;;;;;;;5075339;28;19917;-61
2023/12/13 03:02:40;;;;;;;;;;;;;;;;;;5072854;28;19912;-62
2023/12/13 03:05:06;;;;;;;;;;;;;;;;;;5089142;28;20287;-65
2023/12/13 03:07:32;;;;;;;;;;;;;;;;;;5082815;28;19920;-65
2023/12/13 03:09:58;;;;;;;;;;;;;;;;;;5088465;28;20486;-63
2023/12/13 03:12:24;;;;;;;;;;;;;;;;;;5078435;28;19920;-65
2023/12/13 03:14:50;;;;;;;;;;;;;;;;;;5075821;28;19995;-65
2023/12/13 03:17:16;;;;;;;;;;;;;;;;;;5081715;28;20065;-64
2023/12/13 03:19:42;;;;;;;;;;;;;;;;;;5086779;28;20384;-64
2023/12/13 03:22:08;;;;;;;;;;;;;;;;;;5088401;28;20057;-65
2023/12/13 03:24:34;;;;;;;;;;;;;;;;;;5077301;28;20003;-65
2023/12/13 03:27:00;;;;;;;;;;;;;;;;;;5087151;28;19973;-64
2023/12/13 03:29:25;;;;;;;;;;;;;;;;;;5075139;28;20005;-65
2023/12/13 03:31:51;;;;;;;;;;;;;;;;;;5089236;28;19991;-64
2023/12/13 03:34:17;;;;;;;;;;;;;;;;;;5080166;28;19912;-65
2023/12/13 03:36:43;;;;;;;;;;;;;;;;;;5082894;28;19923;-65
2023/12/13 03:39:09;;;;;;;;;;;;;;;;;;5090384;28;20033;-64
2023/12/13 03:41:35;;;;;;;;;;;;;;;;;;5091604;28;20008;-64
2023/12/13 03:44:01;;;;;;;;;;;;;;;;;;5090041;28;19922;-64
2023/12/13 03:46:27;;;;;;;;;;;;;;;;;;5089120;28;20011;-65
2023/12/13 03:48:53;;;;;;;;;;;;;;;;;;5085225;28;19920;-65
2023/12/13 03:51:19;;;;;;;;;;;;;;;;;;5084227;28;20018;-63
2023/12/13 03:53:45;;;;;;;;;;;;;;;;;;5084318;28;20373;-65
2023/12/13 03:56:11;;;;;;;;;;;;;;;;;;5093070;28;19912;-65
2023/12/13 03:58:37;;;;;;;;;;;;;;;;;;5084448;28;19912;-65
2023/12/13 04:01:03;;;;;;;;;;;;;;;;;;5091433;28;19959;-63
2023/12/13 04:03:29;;;;;;;;;;;;;;;;;;5078089;28;19938;-64
2023/12/13 04:05:54;;;;;;;;;;;;;;;;;;5092055;28;19923;-64
2023/12/13 04:08:20;;;;;;;;;;;;;;;;;;5093476;28;19972;-65
2023/12/13 04:10:46;;;;;;;;;;;;;;;;;;5078841;28;21620;-65
2023/12/13 04:13:12;;;;;;;;;;;;;;;;;;5091555;28;20011;-64
2023/12/13 04:15:38;;;;;;;;;;;;;;;;;;5083218;28;19934;-64
2023/12/13 04:18:04;;;;;;;;;;;;;;;;;;5075210;28;19970;-64
2023/12/13 04:20:30;;;;;;;;;;;;;;;;;;5074180;28;20400;-64
2023/12/13 04:22:56;;;;;;;;;;;;;;;;;;5090586;28;20010;-64
2023/12/13 04:25:22;;;;;;;;;;;;;;;;;;5091582;28;20047;-64
2023/12/13 04:27:48;;;;;;;;;;;;;;;;;;5088089;28;20406;-63
2023/12/13 04:30:14;;;;;;;;;;;;;;;;;;5090505;28;19912;-63
2023/12/13 04:32:40;;;;;;;;;;;;;;;;;;5079446;28;19923;-63
2023/12/13 04:35:06;;;;;;;;;;;;;;;;;;5092507;28;20387;-63
2023/12/13 04:37:32;;;;;;;;;;;;;;;;;;5092827;28;20002;-63
2023/12/13 04:39:58;;;;;;;;;;;;;;;;;;5093536;28;20270;-64
2023/12/13 04:42:24;;;;;;;;;;;;;;;;;;5090549;28;20296;-64
2023/12/13 04:44:50;;;;;;;;;;;;;;;;;;5082068;28;19917;-64
2023/12/13 04:47:16;;;;;;;;;;;;;;;;;;5074261;28;20361;-64
2023/12/13 04:49:42;;;;;;;;;;;;;;;;;;5082128;28;19916;-63
2023/12/13 04:52:07;;;;;;;;;;;;;;;;;;5089133;28;19919;-63
2023/12/13 04:54:35;;;;;;;;;;;;;;;;;;5082309;28;20006;-64
2023/12/13 04:57:01;;;;;;;;;;;;;;;;;;5092833;28;19919;-64
2023/12/13 04:59:27;;;;;;;;;;;;;;;;;;5075569;28;20384;-64
2023/12/13 05:01:53;;;;;;;;;;;;;;;;;;5087179;28;20015;-64
2023/12/13 05:04:19;;;;;;;;;;;;;;;;;;5080000;28;20323;-64
2023/12/13 05:06:45;;;;;;;;;;;;;;;;;;5089430;28;19943;-64
2023/12/13 05:09:11;;;;;;;;;;;;;;;;;;5093074;28;19915;-63
2023/12/13 05:11:37;;;;;;;;;;;;;;;;;;5088759;28;20003;-64
2023/12/13 05:14:03;;;;;;;;;;;;;;;;;;5074719;28;20446;-63
2023/12/13 05:16:29;;;;;;;;;;;;;;;;;;5077190;28;19913;-64
2023/12/13 05:18:55;;;;;;;;;;;;;;;;;;5077321;28;20021;-64
2023/12/13 05:21:21;;;;;;;;;;;;;;;;;;5086558;28;19930;-63
2023/12/13 05:23:47;;;;;;;;;;;;;;;;;;5081193;28;19991;-63
2023/12/13 05:26:13;;;;;;;;;;;;;;;;;;5087665;28;20050;-64
2023/12/13 05:28:39;;;;;;;;;;;;;;;;;;5087106;28;19988;-64
2023/12/13 05:31:05;;;;;;;;;;;;;;;;;;5077307;28;19972;-64
2023/12/13 05:33:31;;;;;;;;;;;;;;;;;;5076551;28;20434;-63
2023/12/13 05:35:56;;;;;;;;;;;;;;;;;;5077875;28;19920;-63
2023/12/13 05:38:22;;;;;;;;;;;;;;;;;;5088623;28;19917;-64
2023/12/13 05:40:48;;;;;;;;;;;;;;;;;;5083610;28;20004;-64
2023/12/13 05:43:14;;;;;;;;;;;;;;;;;;5085179;28;19958;-64
2023/12/13 05:45:40;;;;;;;;;;;;;;;;;;5081730;28;20392;-64
2023/12/13 05:48:06;;;;;;;;;;;;;;;;;;5083073;28;19919;-64
2023/12/13 05:50:32;;;;;;;;;;;;;;;;;;5079189;28;20291;-63
2023/12/13 05:52:58;;;;;;;;;;;;;;;;;;5085471;28;19919;-64
2023/12/13 05:55:24;;;;;;;;;;;;;;;;;;5073146;28;19951;-63
2023/12/13 05:57:50;;;;;;;;;;;;;;;;;;5083116;28;19944;-64
2023/12/13 06:00:16;;;;;;;;;;;;;;;;;;5084263;28;20007;-64
2023/12/13 06:02:42;;;;;;;;;;;;;;;;;;5082006;28;19916;-64
2023/12/13 06:05:07;;;;;;;;;;;;;;;;;;5081832;28;19981;-64
2023/12/13 06:07:33;;;;;;;;;;;;;;;;;;5077895;28;19963;-64
2023/12/13 06:09:59;;;;;;;;;;;;;;;;;;5091017;28;19995;-64
2023/12/13 06:12:25;;;;;;;;;;;;;;;;;;5083444;28;20384;-64
2023/12/13 06:14:51;;;;;;;;;;;;;;;;;;5085356;28;19912;-64
2023/12/13 06:17:17;;;;;;;;;;;;;;;;;;5087658;28;20283;-64
2023/12/13 06:19:43;;;;;;;;;;;;;;;;;;5083494;28;20277;-63
2023/12/13 06:22:10;;;;;;;;;;;;;;;;;;5086001;28;19946;-64
2023/12/13 06:24:36;;;;;;;;;;;;;;;;;;5085839;28;19916;-63
2023/12/13 06:27:02;;;;;;;;;;;;;;;;;;5075539;28;19962;-65
2023/12/13 06:29:28;;;;;;;;;;;;;;;;;;5083560;28;20322;-64
2023/12/13 06:31:54;;;;;;;;;;;;;;;;;;5085802;28;19908;-63
2023/12/13 06:34:20;;;;;;;;;;;;;;;;;;5070603;28;20340;-65
2023/12/13 06:36:46;;;;;;;;;;;;;;;;;;5084043;28;19919;-61
2023/12/13 06:39:11;;;;;;;;;;;;;;;;;;5088527;28;19912;-61
2023/12/13 06:41:37;;;;;;;;;;;;;;;;;;5095950;28;19991;-61
2023/12/13 06:44:03;;;;;;;;;;;;;;;;;;5089669;28;20380;-62
2023/12/13 06:46:29;;;;;;;;;;;;;;;;;;5077960;28;19919;-61
2023/12/13 06:48:55;;;;;;;;;;;;;;;;;;5078298;28;19913;-61
2023/12/13 06:51:21;;;;;;;;;;;;;;;;;;5093048;28;19912;-61
2023/12/13 06:53:47;;;;;;;;;;;;;;;;;;5091890;28;19954;-61
2023/12/13 06:56:13;;;;;;;;;;;;;;;;;;5082947;28;19963;-61
2023/12/13 06:58:39;;;;;;;;;;;;;;;;;;5091773;28;19951;-61
2023/12/13 07:01:05;;;;;;;;;;;;;;;;;;5095513;28;19950;-61
2023/12/13 07:03:31;;;;;;;;;;;;;;;;;;5089034;28;19916;-61
2023/12/13 07:05:57;;;;;;;;;;;;;;;;;;5093800;28;19955;-62
2023/12/13 07:08:23;;;;;;;;;;;;;;;;;;5083039;28;19955;-61
2023/12/13 07:10:49;;;;;;;;;;;;;;;;;;5075274;28;20368;-61
2023/12/13 07:13:15;;;;;;;;;;;;;;;;;;5094667;28;19916;-61
2023/12/13 07:15:40;;;;;;;;;;;;;;;;;;5085184;28;20011;-61
2023/12/13 07:18:06;;;;;;;;;;;;;;;;;;5087934;28;20364;-62
2023/12/13 07:20:32;;;;;;;;;;;;;;;;;;5083637;28;19920;-61
2023/12/13 07:22:58;;;;;;;;;;;;;;;;;;5095637;28;19914;-61
2023/12/13 07:25:24;;;;;;;;;;;;;;;;;;5090484;28;20076;-61
2023/12/13 07:27:50;;;;;;;;;;;;;;;;;;5076161;28;19972;-61
2023/12/13 07:30:16;;;;;;;;;;;;;;;;;;5082701;28;20296;-61
2023/12/13 07:32:43;;;;;;;;;;;;;;;;;;5077001;28;19955;-61
2023/12/13 07:35:09;;;;;;;;;;;;;;;;;;5082674;28;19912;-61
2023/12/13 07:37:36;;;;;;;;;;;;;;;;;;5094947;28;20007;-61
2023/12/13 07:40:03;;;;;;;;;;;;;;;;;;5080385;28;19924;-62
2023/12/13 07:42:31;;;;;;;;;;;;;;;;;;5083837;28;19908;-62
2023/12/13 07:44:57;;;;;;;;;;;;;;;;;;5093103;28;20022;-59
2023/12/13 07:47:23;;;;;;;;;;;;;;;;;;5094306;28;20554;-62
2023/12/13 07:49:49;;;;;;;;;;;;;;;;;;5093425;28;19908;-60
2023/12/13 07:52:15;;;;;;;;;;;;;;;;;;5094416;28;19908;-62
2023/12/13 07:54:42;;;;;;;;;;;;;;;;;;5092114;28;19938;-60
2023/12/13 07:57:08;;;;;;;;;;;;;;;;;;5092424;28;20386;-60
2023/12/13 07:59:34;;;;;;;;;;;;;;;;;;5083828;28;19920;-60
2023/12/13 08:02:00;;;;;;;;;;;;;;;;;;5089261;28;19983;-60
2023/12/13 08:04:26;;;;;;;;;;;;;;;;;;5092255;28;19923;-60
2023/12/13 08:06:52;;;;;;;;;;;;;;;;;;5094047;28;19908;-60
2023/12/13 08:09:19;;;;;;;;;;;;;;;;;;5094105;28;19964;-60
2023/12/13 08:11:46;;;;;;;;;;;;;;;;;;5086834;28;20314;-61
2023/12/13 08:14:13;;;;;;;;;;;;;;;;;;5092719;28;19908;-61
2023/12/13 08:16:39;;;;;;;;;;;;;;;;;;5093359;28;19948;-60
2023/12/13 08:19:05;;;;;;;;;;;;;;;;;;5085391;28;19948;-60
2023/12/13 08:21:31;;;;;;;;;;;;;;;;;;5070051;28;19912;-60
2023/12/13 08:23:57;;;;;;;;;;;;;;;;;;5082068;28;20003;-60
2023/12/13 08:26:25;;;;;;;;;;;;;;;;;;5078517;28;20007;-59
2023/12/13 08:28:51;;;;;;;;;;;;;;;;;;5078675;28;20438;-59
2023/12/13 08:31:17;;;;;;;;;;;;;;;;;;5086875;28;19961;-59
2023/12/13 08:33:43;;;;;;;;;;;;;;;;;;5089419;28;20536;-60
2023/12/13 08:36:09;;;;;;;;;;;;;;;;;;5073984;28;19952;-59
2023/12/13 08:38:35;;;;;;;;;;;;;;;;;;5079556;28;19913;-60
2023/12/13 08:41:01;;;;;;;;;;;;;;;;;;5086741;28;19960;-60
2023/12/13 08:43:27;;;;;;;;;;;;;;;;;;5074085;28;20376;-59
2023/12/13 08:45:52;;;;;;;;;;;;;;;;;;5076009;28;19966;-59
2023/12/13 08:48:18;;;;;;;;;;;;;;;;;;5090257;28;19950;-61
2023/12/13 08:50:44;;;;;;;;;;;;;;;;;;5092780;28;20377;-60
2023/12/13 08:53:10;;;;;;;;;;;;;;;;;;5090920;28;19919;-60
2023/12/13 08:55:36;;;;;;;;;;;;;;;;;;5093390;28;19908;-65
2023/12/13 08:58:02;;;;;;;;;;;;;;;;;;5093200;28;19951;-64
2023/12/13 09:00:28;;;;;;;;;;;;;;;;;;5092851;28;19908;-64
2023/12/13 09:02:54;;;;;;;;;;;;;;;;;;5079771;28;20011;-64
2023/12/13 09:05:20;;;;;;;;;;;;;;;;;;5090853;28;19912;-64
2023/12/13 09:07:45;;;;;;;;;;;;;;;;;;5083656;28;19958;-65
2023/12/13 09:10:12;;;;;;;;;;;;;;;;;;5089123;28;20011;-65
2023/12/13 09:12:38;;;;;;;;;;;;;;;;;;5089466;28;19915;-65
2023/12/13 09:15:06;;;;;;;;;;;;;;;;;;5083478;28;19917;-65
2023/12/13 09:17:32;;;;;;;;;;;;;;;;;;5084280;28;19912;-65
2023/12/13 09:19:58;;;;;;;;;;;;;;;;;;5073582;28;19924;-64
2023/12/13 09:22:24;;;;;;;;;;;;;;;;;;5074504;28;19908;-65
2023/12/13 09:24:50;;;;;;;;;;;;;;;;;;5092734;28;19998;-65
2023/12/13 09:27:16;;;;;;;;;;;;;;;;;;5090762;28;19926;-64
2023/12/13 09:29:42;;;;;;;;;;;;;;;;;;5083972;28;19922;-65
2023/12/13 09:32:08;;;;;;;;;;;;;;;;;;5085294;28;19913;-64
2023/12/13 09:34:34;;;;;;;;;;;;;;;;;;5072732;28;20035;-65
2023/12/13 09:37:00;;;;;;;;;;;;;;;;;;5090369;28;19908;-64
2023/12/13 09:39:26;;;;;;;;;;;;;;;;;;5073112;28;19957;-64
2023/12/13 09:41:53;;;;;;;;;;;;;;;;;;5083675;28;19908;-64
2023/12/13 09:44:19;;;;;;;;;;;;;;;;;;5092209;28;19912;-64
2023/12/13 09:46:45;;;;;;;;;;;;;;;;;;5087735;28;19916;-64
2023/12/13 09:49:11;;;;;;;;;;;;;;;;;;5071544;28;19956;-63
2023/12/13 09:51:37;;;;;;;;;;;;;;;;;;5083714;28;20441;-64
2023/12/13 09:54:03;;;;;;;;;;;;;;;;;;5090149;28;19912;-64
2023/12/13 09:56:29;;;;;;;;;;;;;;;;;;5092221;28;20283;-64
2023/12/13 09:58:55;;;;;;;;;;;;;;;;;;5092000;28;19914;-64
2023/12/13 10:01:21;;;;;;;;;;;;;;;;;;5091914;28;19912;-65
2023/12/13 10:03:47;;;;;;;;;;;;;;;;;;5081186;28;19912;-65
2023/12/13 10:06:13;;;;;;;;;;;;;;;;;;5072117;28;20328;-63
2023/12/13 10:08:39;;;;;;;;;;;;;;;;;;5091014;28;19916;-62
2023/12/13 10:11:05;;;;;;;;;;;;;;;;;;5090022;28;20302;-62
2023/12/13 10:13:31;;;;;;;;;;;;;;;;;;5075623;28;19997;-60
2023/12/13 10:15:57;;;;;;;;;;;;;;;;;;5070909;28;20299;-61
2023/12/13 10:18:23;;;;;;;;;;;;;;;;;;5070611;28;20042;-62
2023/12/13 10:20:49;;;;;;;;;;;;;;;;;;5082832;28;19908;-61
2023/12/13 10:23:15;;;;;;;;;;;;;;;;;;5091764;28;20230;-61
2023/12/13 10:25:41;;;;;;;;;;;;;;;;;;5081724;28;19921;-61
2023/12/13 10:28:07;;;;;;;;;;;;;;;;;;5076289;28;19924;-61
2023/12/13 10:30:32;;;;;;;;;;;;;;;;;;5091387;28;19908;-62
2023/12/13 10:32:58;;;;;;;;;;;;;;;;;;5078692;28;19912;-63
2023/12/13 10:35:24;;;;;;;;;;;;;;;;;;5084835;28;19951;-62
2023/12/13 10:37:50;;;;;;;;;;;;;;;;;;5085317;28;19912;-62
2023/12/13 10:40:17;;;;;;;;;;;;;;;;;;5077644;28;20022;-61
2023/12/13 10:42:44;;;;;;;;;;;;;;;;;;5089702;28;20016;-61
2023/12/13 10:45:10;;;;;;;;;;;;;;;;;;5091626;28;19912;-61
2023/12/13 10:47:36;;;;;;;;;;;;;;;;;;5089772;28;19966;-61
2023/12/13 10:50:02;;;;;;;;;;;;;;;;;;5079884;28;19951;-61
2023/12/13 10:52:28;;;;;;;;;;;;;;;;;;5076356;28;19908;-61
2023/12/13 10:54:54;;;;;;;;;;;;;;;;;;5091639;28;19952;-61
2023/12/13 10:57:20;;;;;;;;;;;;;;;;;;5091445;28;19912;-61
2023/12/13 10:59:46;;;;;;;;;;;;;;;;;;5091167;28;19956;-61
2023/12/13 11:02:12;;;;;;;;;;;;;;;;;;5091319;28;19912;-61
2023/12/13 11:04:38;;;;;;;;;;;;;;;;;;5089766;28;20390;-61
2023/12/13 11:07:04;;;;;;;;;;;;;;;;;;5087125;28;19920;-62
2023/12/13 11:09:30;;;;;;;;;;;;;;;;;;5082833;28;19914;-61
2023/12/13 11:11:59;;;;;;;;;;;;;;;;;;5075156;28;19958;-62
2023/12/13 11:14:26;;;;;;;;;;;;;;;;;;5083715;28;19908;-62
2023/12/13 11:16:52;;;;;;;;;;;;;;;;;;5091630;28;20368;-65
2023/12/13 11:19:19;;;;;;;;;;;;;;;;;;5087832;28;20049;-64
2023/12/13 11:21:45;;;;;;;;;;;;;;;;;;5080239;28;20295;-65
2023/12/13 11:24:11;;;;;;;;;;;;;;;;;;5092754;28;19908;-65
2023/12/13 11:26:37;;;;;;;;;;;;;;;;;;5094959;28;20407;-65
2023/12/13 11:29:03;;;;;;;;;;;;;;;;;;5076945;28;19966;-65
2023/12/13 11:31:30;;;;;;;;;;;;;;;;;;5073320;28;20007;-65
2023/12/13 11:33:56;;;;;;;;;;;;;;;;;;5077392;28;19917;-65
2023/12/13 11:36:22;;;;;;;;;;;;;;;;;;5088854;28;19908;-65
2023/12/13 11:38:48;;;;;;;;;;;;;;;;;;5094942;28;19912;-65
2023/12/13 11:41:14;;;;;;;;;;;;;;;;;;5091840;28;19913;-65
2023/12/13 11:43:40;;;;;;;;;;;;;;;;;;5073229;28;19916;-65
2023/12/13 11:46:06;;;;;;;;;;;;;;;;;;5080523;28;19918;-65
2023/12/13 11:48:32;;;;;;;;;;;;;;;;;;5092767;28;20087;-65
2023/12/13 11:50:59;;;;;;;;;;;;;;;;;;5085518;28;20398;-65
2023/12/13 11:53:25;;;;;;;;;;;;;;;;;;5087130;28;19912;-65
2023/12/13 11:55:51;;;;;;;;;;;;;;;;;;5092585;28;20338;-65
2023/12/13 11:58:17;;;;;;;;;;;;;;;;;;5094218;28;19969;-62
2023/12/13 12:00:45;;;;;;;;;;;;;;;;;;5094205;28;19999;-65
2023/12/13 12:03:11;;;;;;;;;;;;;;;;;;5094551;28;19931;-65
2023/12/13 12:05:37;;;;;;;;;;;;;;;;;;5084897;28;19920;-64
2023/12/13 12:08:03;;;;;;;;;;;;;;;;;;5091962;28;19919;-65
2023/12/13 12:10:29;;;;;;;;;;;;;;;;;;5091368;28;20398;-65
2023/12/13 12:12:55;;;;;;;;;;;;;;;;;;5093946;28;19912;-66
2023/12/13 12:15:21;;;;;;;;;;;;;;;;;;5080780;28;20345;-65
2023/12/13 12:17:47;;;;;;;;;;;;;;;;;;5094223;28;19955;-65
2023/12/13 12:20:13;;;;;;;;;;;;;;;;;;5093905;28;19961;-65
2023/12/13 12:22:39;;;;;;;;;;;;;;;;;;5092440;28;20042;-65
2023/12/13 12:25:05;;;;;;;;;;;;;;;;;;5082941;28;20397;-65
2023/12/13 12:27:31;;;;;;;;;;;;;;;;;;5086136;28;19978;-65
2023/12/13 12:29:57;;;;;;;;;;;;;;;;;;5083317;28;19974;-65
2023/12/13 12:32:23;;;;;;;;;;;;;;;;;;5072768;28;19912;-64
2023/12/13 12:34:49;;;;;;;;;;;;;;;;;;5080707;28;19920;-65
2023/12/13 12:37:15;;;;;;;;;;;;;;;;;;5093902;28;20283;-65
2023/12/13 12:39:41;;;;;;;;;;;;;;;;;;5089310;28;19912;-64
2023/12/13 12:42:07;;;;;;;;;;;;;;;;;;5091418;28;20320;-64
2023/12/13 12:44:33;;;;;;;;;;;;;;;;;;5083670;28;19962;-65
2023/12/13 12:46:59;;;;;;;;;;;;;;;;;;5086049;28;20362;-65
2023/12/13 12:49:24;;;;;;;;;;;;;;;;;;5093077;28;19908;-65
2023/12/13 12:51:50;;;;;;;;;;;;;;;;;;5084628;28;19982;-65
2023/12/13 12:54:16;;;;;;;;;;;;;;;;;;5093303;28;20332;-66
2023/12/13 12:56:43;;;;;;;;;;;;;;;;;;5093260;28;19912;-65
2023/12/13 12:59:14;;;;;;;;;;;;;;;;;;5089577;28;19912;-64
2023/12/13 13:01:40;;;;;;;;;;;;;;;;;;5080046;28;19908;-65
2023/12/13 13:04:10;;;;;;;;;;;;;;;;;;5092794;28;20406;-65
2023/12/13 13:06:36;;;;;;;;;;;;;;;;;;5091464;28;19922;-65
2023/12/13 13:09:02;;;;;;;;;;;;;;;;;;5091332;28;20330;-65
2023/12/13 13:11:28;;;;;;;;;;;;;;;;;;5077718;28;20006;-65
2023/12/13 13:13:54;;;;;;;;;;;;;;;;;;5087222;28;20332;-64
2023/12/13 13:16:21;;;;;;;;;;;;;;;;;;5079409;28;19912;-64
2023/12/13 13:18:47;;;;;;;;;;;;;;;;;;5093031;28;19994;-65
2023/12/13 13:21:12;;;;;;;;;;;;;;;;;;5090999;28;20351;-64
2023/12/13 13:23:38;;;;;;;;;;;;;;;;;;5090404;28;20003;-65
2023/12/13 13:26:05;;;;;;;;;;;;;;;;;;5092473;28;19934;-64
2023/12/13 13:28:31;;;;;;;;;;;;;;;;;;5092664;28;19908;-64
2023/12/13 13:30:57;;;;;;;;;;;;;;;;;;5092406;28;19919;-64
2023/12/13 13:33:23;;;;;;;;;;;;;;;;;;5092700;28;19909;-65
2023/12/13 13:35:50;;;;;;;;;;;;;;;;;;5088046;28;20396;-61
2023/12/13 13:38:16;;;;;;;;;;;;;;;;;;5079559;28;19930;-60
2023/12/13 13:40:42;;;;;;;;;;;;;;;;;;5090195;28;19912;-61
2023/12/13 13:43:08;;;;;;;;;;;;;;;;;;5086016;28;19967;-62
2023/12/13 13:45:34;;;;;;;;;;;;;;;;;;5074237;28;19963;-60
2023/12/13 13:48:00;;;;;;;;;;;;;;;;;;5091911;28;19923;-61
2023/12/13 13:50:26;;;;;;;;;;;;;;;;;;5073973;28;19912;-61
2023/12/13 13:52:52;;;;;;;;;;;;;;;;;;5092063;28;19908;-60
2023/12/13 13:55:19;;;;;;;;;;;;;;;;;;5085191;28;20001;-60
2023/12/13 13:57:45;;;;;;;;;;;;;;;;;;5086820;28;20018;-61
2023/12/13 14:00:11;;;;;;;;;;;;;;;;;;5091555;28;19947;-61
2023/12/13 14:02:37;;;;;;;;;;;;;;;;;;5089026;28;19912;-61
2023/12/13 14:05:04;;;;;;;;;;;;;;;;;;5083829;28;20010;-60
2023/12/13 14:07:31;;;;;;;;;;;;;;;;;;5085070;28;19915;-61
2023/12/13 14:09:57;;;;;;;;;;;;;;;;;;5080184;28;20329;-61
2023/12/13 14:12:23;;;;;;;;;;;;;;;;;;5078585;28;19912;-61
2023/12/13 14:14:49;;;;;;;;;;;;;;;;;;5073270;28;20034;-60
2023/12/13 14:17:15;;;;;;;;;;;;;;;;;;5090176;28;19912;-60
2023/12/13 14:19:41;;;;;;;;;;;;;;;;;;5087776;28;20093;-64
2023/12/13 14:22:07;;;;;;;;;;;;;;;;;;5085360;28;20268;-60
2023/12/13 14:24:33;;;;;;;;;;;;;;;;;;5083082;28;19916;-60
2023/12/13 14:26:59;;;;;;;;;;;;;;;;;;5086913;28;19927;-60
2023/12/13 14:29:25;;;;;;;;;;;;;;;;;;5080314;28;19912;-61
2023/12/13 14:31:51;;;;;;;;;;;;;;;;;;5081909;28;19926;-58
2023/12/13 14:34:17;;;;;;;;;;;;;;;;;;5069958;28;19935;-61
2023/12/13 14:36:46;;;;;;;;;;;;;;;;;;5083560;28;20443;-60
2023/12/13 14:39:12;;;;;;;;;;;;;;;;;;5087410;28;20291;-60
2023/12/13 14:41:38;;;;;;;;;;;;;;;;;;5084998;28;19920;-61
2023/12/13 14:44:05;;;;;;;;;;;;;;;;;;5075972;28;20015;-61
2023/12/13 14:46:31;;;;;;;;;;;;;;;;;;5080766;28;20736;-65
2023/12/13 14:48:57;;;;;;;;;;;;;;;;;;5086567;28;20002;-66
2023/12/13 14:51:23;;;;;;;;;;;;;;;;;;5085385;28;19920;-65
2023/12/13 14:53:50;;;;;;;;;;;;;;;;;;5083910;28;19934;-66
2023/12/13 14:56:16;;;;;;;;;;;;;;;;;;5083402;28;19912;-65
2023/12/13 14:58:42;;;;;;;;;;;;;;;;;;5085369;28;20006;-66
2023/12/13 15:01:08;;;;;;;;;;;;;;;;;;5087233;28;20344;-66
2023/12/13 15:03:34;;;;;;;;;;;;;;;;;;5088101;28;19916;-66
2023/12/13 15:06:00;;;;;;;;;;;;;;;;;;5088187;28;19923;-65
2023/12/13 15:08:26;;;;;;;;;;;;;;;;;;5082539;28;20287;-66
2023/12/13 15:10:54;;;;;;;;;;;;;;;;;;5085991;28;19917;-66
2023/12/13 15:13:21;;;;;;;;;;;;;;;;;;5077286;28;20050;-66
2023/12/13 15:15:47;;;;;;;;;;;;;;;;;;5086358;28;19927;-65
2023/12/13 15:18:13;;;;;;;;;;;;;;;;;;5080600;28;19944;-65
2023/12/13 15:20:39;;;;;;;;;;;;;;;;;;5086780;28;19955;-66
2023/12/13 15:23:04;;;;;;;;;;;;;;;;;;5085813;28;19912;-65
2023/12/13 15:25:31;;;;;;;;;;;;;;;;;;5081650;28;19916;-66
2023/12/13 15:28:00;;;;;;;;;;;;;;;;;;5079197;28;19936;-66
2023/12/13 15:30:28;;;;;;;;;;;;;;;;;;5084216;28;19927;-66
2023/12/13 15:32:54;;;;;;;;;;;;;;;;;;5089120;28;20273;-65
2023/12/13 15:35:20;;;;;;;;;;;;;;;;;;5081389;28;19938;-66
2023/12/13 15:37:48;;;;;;;;;;;;;;;;;;5075757;28;21277;-66
2023/12/13 15:40:14;;;;;;;;;;;;;;;;;;5075842;28;19923;-65
2023/12/13 15:42:40;;;;;;;;;;;;;;;;;;5084155;28;19927;-66
2023/12/13 15:45:07;;;;;;;;;;;;;;;;;;5086861;28;20015;-66
2023/12/13 15:47:33;;;;;;;;;;;;;;;;;;5084038;28;19916;-66
2023/12/13 15:50:00;;;;;;;;;;;;;;;;;;5080008;28;19958;-66
2023/12/13 15:52:26;;;;;;;;;;;;;;;;;;5080041;28;19923;-66
2023/12/13 15:54:53;;;;;;;;;;;;;;;;;;5088966;28;20383;-66
2023/12/13 15:57:20;;;;;;;;;;;;;;;;;;5091541;28;19916;-66
2023/12/13 15:59:46;;;;;;;;;;;;;;;;;;5088922;28;19973;-66
2023/12/13 16:02:12;;;;;;;;;;;;;;;;;;5085814;28;20019;-65
2023/12/13 16:04:38;;;;;;;;;;;;;;;;;;5078333;28;19923;-66
2023/12/13 16:07:04;;;;;;;;;;;;;;;;;;5084545;28;19956;-64
2023/12/13 16:09:30;;;;;;;;;;;;;;;;;;5086206;28;19926;-65
2023/12/13 16:11:56;;;;;;;;;;;;;;;;;;5086138;28;19995;-69
2023/12/13 16:14:24;;;;;;;;;;;;;;;;;;5082261;28;19951;-67
2023/12/13 16:16:50;;;;;;;;;;;;;;;;;;5087452;28;19926;-65
2023/12/13 16:19:16;;;;;;;;;;;;;;;;;;5090952;28;19916;-66
2023/12/13 16:21:42;;;;;;;;;;;;;;;;;;5085067;28;19965;-66
2023/12/13 16:24:08;;;;;;;;;;;;;;;;;;5083136;28;19995;-66
2023/12/13 16:26:34;;;;;;;;;;;;;;;;;;5090387;28;20081;-66
2023/12/13 16:29:00;;;;;;;;;;;;;;;;;;5085904;28;20438;-66
2023/12/13 16:31:26;;;;;;;;;;;;;;;;;;5090622;28;19912;-63
2023/12/13 16:33:52;;;;;;;;;;;;;;;;;;5084866;28;20414;-66
2023/12/13 16:36:18;;;;;;;;;;;;;;;;;;5086160;28;19912;-66
2023/12/13 16:38:44;;;;;;;;;;;;;;;;;;5086344;28;19957;-66